sensor_id;sensor_type;location;lat;lon;timestamp;P1;durP1;ratioP1;P2;durP2;ratioP2
21822;SDS011;11074;48.596;9.238;2023-05-02T00:00:36;5.05;;;4.18;;
21822;SDS011;11074;48.596;9.238;2023-05-02T00:03:03;5.53;;;3.67;;
21822;SDS011;11074;48.596;9.238;2023-05-02T00:05:30;6.90;;;3.60;;
21822;SDS011;11074;48.596;9.238;2023-05-02T00:07:55;4.75;;;3.58;;
21822;SDS011;11074;48.596;9.238;2023-05-02T00:10:21;5.35;;;3.50;;
21822;SDS011;11074;48.596;9.238;2023-05-02T00:12:47;9.05;;;3.42;;
21822;SDS011;11074;48.596;9.238;2023-05-02T00:15:13;4.55;;;3.50;;
21822;SDS011;11074;48.596;9.238;2023-05-02T00:17:39;5.57;;;3.17;;
21822;SDS011;11074;48.596;9.238;2023-05-02T00:20:06;4.90;;;3.03;;
21822;SDS011;11074;48.596;9.238;2023-05-02T00:22:34;6.18;;;3.17;;
21822;SDS011;11074;48.596;9.238;2023-05-02T00:25:00;5.03;;;3.20;;
21822;SDS011;11074;48.596;9.238;2023-05-02T00:27:26;5.35;;;3.40;;
21822;SDS011;11074;48.596;9.238;2023-05-02T00:29:53;5.05;;;3.65;;
21822;SDS011;11074;48.596;9.238;2023-05-02T00:32:19;4.07;;;3.65;;
21822;SDS011;11074;48.596;9.238;2023-05-02T00:34:45;5.93;;;3.03;;
21822;SDS011;11074;48.596;9.238;2023-05-02T00:37:10;4.43;;;3.78;;
21822;SDS011;11074;48.596;9.238;2023-05-02T00:39:37;5.20;;;3.72;;
21822;SDS011;11074;48.596;9.238;2023-05-02T00:42:02;7.60;;;3.97;;
21822;SDS011;11074;48.596;9.238;2023-05-02T00:44:28;4.18;;;3.42;;
21822;SDS011;11074;48.596;9.238;2023-05-02T00:46:54;5.47;;;3.95;;
21822;SDS011;11074;48.596;9.238;2023-05-02T00:49:21;5.82;;;3.60;;
21822;SDS011;11074;48.596;9.238;2023-05-02T00:51:47;5.13;;;4.38;;
21822;SDS011;11074;48.596;9.238;2023-05-02T00:54:13;6.35;;;4.50;;
21822;SDS011;11074;48.596;9.238;2023-05-02T00:56:39;6.55;;;4.50;;
21822;SDS011;11074;48.596;9.238;2023-05-02T00:59:05;5.43;;;4.20;;
21822;SDS011;11074;48.596;9.238;2023-05-02T01:15:28;7.47;;;6.22;;
21822;SDS011;11074;48.596;9.238;2023-05-02T01:17:57;5.68;;;5.03;;
21822;SDS011;11074;48.596;9.238;2023-05-02T01:20:27;6.63;;;5.18;;
21822;SDS011;11074;48.596;9.238;2023-05-02T01:22:57;6.88;;;5.38;;
21822;SDS011;11074;48.596;9.238;2023-05-02T01:31:39;7.68;;;6.85;;
21822;SDS011;11074;48.596;9.238;2023-05-02T01:34:08;9.43;;;7.40;;
21822;SDS011;11074;48.596;9.238;2023-05-02T01:36:36;9.20;;;7.53;;
21822;SDS011;11074;48.596;9.238;2023-05-02T01:39:08;8.35;;;7.35;;
21822;SDS011;11074;48.596;9.238;2023-05-02T01:41:37;7.75;;;6.47;;
21822;SDS011;11074;48.596;9.238;2023-05-02T01:44:05;9.38;;;6.78;;
21822;SDS011;11074;48.596;9.238;2023-05-02T01:46:35;8.52;;;6.72;;
21822;SDS011;11074;48.596;9.238;2023-05-02T01:49:06;8.68;;;7.28;;
21822;SDS011;11074;48.596;9.238;2023-05-02T01:51:34;9.00;;;7.22;;
21822;SDS011;11074;48.596;9.238;2023-05-02T01:54:05;8.23;;;6.35;;
21822;SDS011;11074;48.596;9.238;2023-05-02T01:56:34;8.50;;;6.90;;
21822;SDS011;11074;48.596;9.238;2023-05-02T01:59:15;7.05;;;6.28;;
21822;SDS011;11074;48.596;9.238;2023-05-02T02:01:44;7.95;;;7.15;;
21822;SDS011;11074;48.596;9.238;2023-05-02T02:04:12;9.40;;;7.63;;
21822;SDS011;11074;48.596;9.238;2023-05-02T02:06:43;9.65;;;7.78;;
21822;SDS011;11074;48.596;9.238;2023-05-02T02:09:15;8.90;;;7.38;;
21822;SDS011;11074;48.596;9.238;2023-05-02T02:11:52;7.60;;;6.80;;
21822;SDS011;11074;48.596;9.238;2023-05-02T02:14:40;9.65;;;7.45;;
21822;SDS011;11074;48.596;9.238;2023-05-02T02:17:14;8.13;;;6.93;;
21822;SDS011;11074;48.596;9.238;2023-05-02T02:19:48;8.73;;;7.38;;
21822;SDS011;11074;48.596;9.238;2023-05-02T02:22:18;7.50;;;6.50;;
21822;SDS011;11074;48.596;9.238;2023-05-02T02:24:47;8.25;;;6.30;;
21822;SDS011;11074;48.596;9.238;2023-05-02T02:27:17;7.93;;;7.10;;
21822;SDS011;11074;48.596;9.238;2023-05-02T02:29:43;8.07;;;7.25;;
21822;SDS011;11074;48.596;9.238;2023-05-02T02:32:09;8.55;;;6.70;;
21822;SDS011;11074;48.596;9.238;2023-05-02T02:34:35;8.52;;;7.13;;
21822;SDS011;11074;48.596;9.238;2023-05-02T02:37:07;7.93;;;6.75;;
21822;SDS011;11074;48.596;9.238;2023-05-02T02:39:49;7.78;;;6.95;;
21822;SDS011;11074;48.596;9.238;2023-05-02T02:45:31;9.68;;;6.60;;
21822;SDS011;11074;48.596;9.238;2023-05-02T02:51:23;8.65;;;7.75;;
21822;SDS011;11074;48.596;9.238;2023-05-02T02:54:08;9.30;;;7.03;;
21822;SDS011;11074;48.596;9.238;2023-05-02T02:56:57;10.18;;;6.05;;
21822;SDS011;11074;48.596;9.238;2023-05-02T02:59:57;7.55;;;5.60;;
21822;SDS011;11074;48.596;9.238;2023-05-02T03:02:40;7.97;;;5.53;;
21822;SDS011;11074;48.596;9.238;2023-05-02T03:05:09;5.68;;;5.03;;
21822;SDS011;11074;48.596;9.238;2023-05-02T03:07:35;6.78;;;5.60;;
21822;SDS011;11074;48.596;9.238;2023-05-02T03:10:02;5.85;;;5.25;;
21822;SDS011;11074;48.596;9.238;2023-05-02T03:12:29;5.25;;;4.60;;
21822;SDS011;11074;48.596;9.238;2023-05-02T03:18:12;4.45;;;4.05;;
21822;SDS011;11074;48.596;9.238;2023-05-02T03:20:37;4.45;;;4.05;;
21822;SDS011;11074;48.596;9.238;2023-05-02T03:23:03;4.68;;;4.18;;
21822;SDS011;11074;48.596;9.238;2023-05-02T03:25:29;5.22;;;4.20;;
21822;SDS011;11074;48.596;9.238;2023-05-02T03:27:56;6.63;;;4.50;;
21822;SDS011;11074;48.596;9.238;2023-05-02T03:30:22;5.03;;;4.38;;
21822;SDS011;11074;48.596;9.238;2023-05-02T03:32:47;6.13;;;4.15;;
21822;SDS011;11074;48.596;9.238;2023-05-02T03:35:13;6.43;;;5.10;;
21822;SDS011;11074;48.596;9.238;2023-05-02T03:37:39;5.35;;;4.75;;
21822;SDS011;11074;48.596;9.238;2023-05-02T03:40:05;6.10;;;4.80;;
21822;SDS011;11074;48.596;9.238;2023-05-02T03:42:33;5.78;;;4.75;;
21822;SDS011;11074;48.596;9.238;2023-05-02T03:45:08;5.68;;;4.88;;
21822;SDS011;11074;48.596;9.238;2023-05-02T03:47:34;6.40;;;5.28;;
21822;SDS011;11074;48.596;9.238;2023-05-02T03:50:00;6.35;;;5.07;;
21822;SDS011;11074;48.596;9.238;2023-05-02T03:52:27;7.75;;;4.60;;
21822;SDS011;11074;48.596;9.238;2023-05-02T03:54:53;5.72;;;4.88;;
21822;SDS011;11074;48.596;9.238;2023-05-02T03:57:18;7.30;;;5.38;;
21822;SDS011;11074;48.596;9.238;2023-05-02T03:59:45;7.15;;;5.72;;
21822;SDS011;11074;48.596;9.238;2023-05-02T04:02:11;10.07;;;6.95;;
21822;SDS011;11074;48.596;9.238;2023-05-02T04:04:37;7.93;;;6.60;;
21822;SDS011;11074;48.596;9.238;2023-05-02T04:07:04;7.65;;;6.75;;
21822;SDS011;11074;48.596;9.238;2023-05-02T04:09:31;9.38;;;7.05;;
21822;SDS011;11074;48.596;9.238;2023-05-02T04:12:03;9.05;;;6.90;;
21822;SDS011;11074;48.596;9.238;2023-05-02T04:14:29;8.40;;;6.63;;
21822;SDS011;11074;48.596;9.238;2023-05-02T04:16:54;7.72;;;6.45;;
21822;SDS011;11074;48.596;9.238;2023-05-02T04:19:20;7.80;;;6.88;;
21822;SDS011;11074;48.596;9.238;2023-05-02T04:21:46;8.48;;;6.47;;
21822;SDS011;11074;48.596;9.238;2023-05-02T04:24:12;7.38;;;6.10;;
21822;SDS011;11074;48.596;9.238;2023-05-02T04:26:38;7.75;;;6.53;;
21822;SDS011;11074;48.596;9.238;2023-05-02T04:29:04;7.07;;;6.32;;
21822;SDS011;11074;48.596;9.238;2023-05-02T04:31:30;7.72;;;6.93;;
21822;SDS011;11074;48.596;9.238;2023-05-02T04:33:56;8.10;;;6.53;;
21822;SDS011;11074;48.596;9.238;2023-05-02T04:36:23;7.78;;;6.85;;
21822;SDS011;11074;48.596;9.238;2023-05-02T04:38:50;8.10;;;6.93;;
21822;SDS011;11074;48.596;9.238;2023-05-02T04:41:16;8.88;;;7.10;;
21822;SDS011;11074;48.596;9.238;2023-05-02T04:43:42;8.27;;;7.10;;
21822;SDS011;11074;48.596;9.238;2023-05-02T04:46:08;10.73;;;7.50;;
21822;SDS011;11074;48.596;9.238;2023-05-02T04:48:34;7.65;;;6.68;;
21822;SDS011;11074;48.596;9.238;2023-05-02T04:51:00;8.75;;;7.20;;
21822;SDS011;11074;48.596;9.238;2023-05-02T04:53:25;8.20;;;6.60;;
21822;SDS011;11074;48.596;9.238;2023-05-02T04:55:52;9.90;;;7.35;;
21822;SDS011;11074;48.596;9.238;2023-05-02T04:58:17;7.80;;;6.93;;
21822;SDS011;11074;48.596;9.238;2023-05-02T05:00:43;8.05;;;6.75;;
21822;SDS011;11074;48.596;9.238;2023-05-02T05:03:09;7.00;;;5.78;;
21822;SDS011;11074;48.596;9.238;2023-05-02T05:05:34;6.55;;;5.85;;
21822;SDS011;11074;48.596;9.238;2023-05-02T05:08:00;7.65;;;6.10;;
21822;SDS011;11074;48.596;9.238;2023-05-02T05:10:26;8.02;;;6.97;;
21822;SDS011;11074;48.596;9.238;2023-05-02T05:12:51;9.35;;;7.55;;
21822;SDS011;11074;48.596;9.238;2023-05-02T05:15:17;8.43;;;7.38;;
21822;SDS011;11074;48.596;9.238;2023-05-02T05:17:46;8.65;;;7.75;;
21822;SDS011;11074;48.596;9.238;2023-05-02T05:20:12;8.63;;;7.43;;
21822;SDS011;11074;48.596;9.238;2023-05-02T05:22:38;9.50;;;7.43;;
21822;SDS011;11074;48.596;9.238;2023-05-02T05:25:05;9.32;;;6.88;;
21822;SDS011;11074;48.596;9.238;2023-05-02T05:27:34;8.45;;;7.55;;
21822;SDS011;11074;48.596;9.238;2023-05-02T05:30:02;8.73;;;7.47;;
21822;SDS011;11074;48.596;9.238;2023-05-02T05:32:29;9.82;;;7.18;;
21822;SDS011;11074;48.596;9.238;2023-05-02T05:34:56;9.02;;;7.63;;
21822;SDS011;11074;48.596;9.238;2023-05-02T05:37:22;7.95;;;6.95;;
21822;SDS011;11074;48.596;9.238;2023-05-02T05:39:48;8.20;;;7.38;;
21822;SDS011;11074;48.596;9.238;2023-05-02T05:42:13;7.90;;;7.00;;
21822;SDS011;11074;48.596;9.238;2023-05-02T05:44:39;10.38;;;6.93;;
21822;SDS011;11074;48.596;9.238;2023-05-02T05:47:05;10.98;;;7.75;;
21822;SDS011;11074;48.596;9.238;2023-05-02T05:49:31;8.63;;;6.90;;
21822;SDS011;11074;48.596;9.238;2023-05-02T05:51:56;10.98;;;7.00;;
21822;SDS011;11074;48.596;9.238;2023-05-02T05:54:22;8.00;;;5.97;;
21822;SDS011;11074;48.596;9.238;2023-05-02T05:56:48;11.75;;;6.05;;
21822;SDS011;11074;48.596;9.238;2023-05-02T05:59:14;7.60;;;6.30;;
21822;SDS011;11074;48.596;9.238;2023-05-02T06:01:40;7.20;;;6.45;;
21822;SDS011;11074;48.596;9.238;2023-05-02T06:04:05;7.70;;;6.90;;
21822;SDS011;11074;48.596;9.238;2023-05-02T06:06:31;8.65;;;7.55;;
21822;SDS011;11074;48.596;9.238;2023-05-02T06:08:57;7.35;;;6.55;;
21822;SDS011;11074;48.596;9.238;2023-05-02T06:11:24;10.27;;;6.45;;
21822;SDS011;11074;48.596;9.238;2023-05-02T06:13:50;8.55;;;6.25;;
21822;SDS011;11074;48.596;9.238;2023-05-02T06:16:17;7.65;;;6.55;;
21822;SDS011;11074;48.596;9.238;2023-05-02T06:18:43;7.05;;;6.35;;
21822;SDS011;11074;48.596;9.238;2023-05-02T06:21:15;6.97;;;6.28;;
21822;SDS011;11074;48.596;9.238;2023-05-02T06:23:41;6.40;;;5.72;;
21822;SDS011;11074;48.596;9.238;2023-05-02T06:26:06;7.13;;;5.88;;
21822;SDS011;11074;48.596;9.238;2023-05-02T06:28:34;7.07;;;5.93;;
21822;SDS011;11074;48.596;9.238;2023-05-02T06:31:03;6.57;;;5.88;;
21822;SDS011;11074;48.596;9.238;2023-05-02T06:33:30;6.88;;;5.82;;
21822;SDS011;11074;48.596;9.238;2023-05-02T06:35:57;7.13;;;5.60;;
21822;SDS011;11074;48.596;9.238;2023-05-02T06:38:23;6.78;;;5.72;;
21822;SDS011;11074;48.596;9.238;2023-05-02T06:40:49;6.82;;;5.70;;
21822;SDS011;11074;48.596;9.238;2023-05-02T06:43:16;7.85;;;5.95;;
21822;SDS011;11074;48.596;9.238;2023-05-02T06:45:42;6.70;;;5.97;;
21822;SDS011;11074;48.596;9.238;2023-05-02T06:48:09;6.97;;;6.05;;
21822;SDS011;11074;48.596;9.238;2023-05-02T06:50:35;6.97;;;6.03;;
21822;SDS011;11074;48.596;9.238;2023-05-02T06:53:02;8.45;;;6.63;;
21822;SDS011;11074;48.596;9.238;2023-05-02T06:55:28;8.57;;;6.55;;
21822;SDS011;11074;48.596;9.238;2023-05-02T06:57:54;6.97;;;6.07;;
21822;SDS011;11074;48.596;9.238;2023-05-02T07:00:20;10.38;;;7.18;;
21822;SDS011;11074;48.596;9.238;2023-05-02T07:02:46;9.80;;;7.10;;
21822;SDS011;11074;48.596;9.238;2023-05-02T07:05:13;9.73;;;7.32;;
21822;SDS011;11074;48.596;9.238;2023-05-02T07:07:40;9.82;;;8.02;;
21822;SDS011;11074;48.596;9.238;2023-05-02T07:10:07;10.13;;;7.47;;
21822;SDS011;11074;48.596;9.238;2023-05-02T07:12:33;9.32;;;7.05;;
21822;SDS011;11074;48.596;9.238;2023-05-02T07:14:59;9.73;;;6.60;;
21822;SDS011;11074;48.596;9.238;2023-05-02T07:17:25;9.88;;;7.10;;
21822;SDS011;11074;48.596;9.238;2023-05-02T07:19:51;7.43;;;6.45;;
21822;SDS011;11074;48.596;9.238;2023-05-02T07:22:17;8.57;;;6.18;;
21822;SDS011;11074;48.596;9.238;2023-05-02T07:24:43;8.90;;;6.78;;
21822;SDS011;11074;48.596;9.238;2023-05-02T07:27:09;9.80;;;7.25;;
21822;SDS011;11074;48.596;9.238;2023-05-02T07:29:37;10.90;;;7.40;;
21822;SDS011;11074;48.596;9.238;2023-05-02T07:32:03;8.70;;;7.45;;
21822;SDS011;11074;48.596;9.238;2023-05-02T07:34:30;8.90;;;6.78;;
21822;SDS011;11074;48.596;9.238;2023-05-02T07:36:56;7.80;;;6.68;;
21822;SDS011;11074;48.596;9.238;2023-05-02T07:39:23;8.07;;;7.00;;
21822;SDS011;11074;48.596;9.238;2023-05-02T07:41:52;10.93;;;7.40;;
21822;SDS011;11074;48.596;9.238;2023-05-02T07:44:19;7.93;;;5.93;;
21822;SDS011;11074;48.596;9.238;2023-05-02T07:46:45;7.18;;;6.45;;
21822;SDS011;11074;48.596;9.238;2023-05-02T07:49:11;10.38;;;6.25;;
21822;SDS011;11074;48.596;9.238;2023-05-02T07:51:38;8.20;;;6.45;;
21822;SDS011;11074;48.596;9.238;2023-05-02T07:54:25;7.70;;;6.53;;
21822;SDS011;11074;48.596;9.238;2023-05-02T07:56:53;7.65;;;6.57;;
21822;SDS011;11074;48.596;9.238;2023-05-02T07:59:21;8.00;;;6.63;;
21822;SDS011;11074;48.596;9.238;2023-05-02T08:01:47;11.07;;;6.53;;
21822;SDS011;11074;48.596;9.238;2023-05-02T08:04:12;8.93;;;6.85;;
21822;SDS011;11074;48.596;9.238;2023-05-02T08:06:38;10.07;;;8.00;;
21822;SDS011;11074;48.596;9.238;2023-05-02T08:09:04;10.75;;;8.45;;
21822;SDS011;11074;48.596;9.238;2023-05-02T08:11:29;10.70;;;7.93;;
21822;SDS011;11074;48.596;9.238;2023-05-02T08:13:55;8.45;;;7.55;;
21822;SDS011;11074;48.596;9.238;2023-05-02T08:16:21;9.10;;;6.93;;
21822;SDS011;11074;48.596;9.238;2023-05-02T08:18:46;9.73;;;8.68;;
21822;SDS011;11074;48.596;9.238;2023-05-02T08:21:12;10.85;;;9.07;;
21822;SDS011;11074;48.596;9.238;2023-05-02T08:23:40;15.45;;;9.20;;
21822;SDS011;11074;48.596;9.238;2023-05-02T08:26:06;11.48;;;9.77;;
21822;SDS011;11074;48.596;9.238;2023-05-02T08:28:32;13.38;;;10.18;;
21822;SDS011;11074;48.596;9.238;2023-05-02T08:30:57;13.07;;;9.73;;
21822;SDS011;11074;48.596;9.238;2023-05-02T08:33:23;12.93;;;11.00;;
21822;SDS011;11074;48.596;9.238;2023-05-02T08:35:49;14.23;;;11.35;;
21822;SDS011;11074;48.596;9.238;2023-05-02T08:38:15;14.75;;;12.00;;
21822;SDS011;11074;48.596;9.238;2023-05-02T08:40:41;15.13;;;12.38;;
21822;SDS011;11074;48.596;9.238;2023-05-02T08:43:06;16.38;;;12.60;;
21822;SDS011;11074;48.596;9.238;2023-05-02T08:45:36;14.82;;;11.95;;
21822;SDS011;11074;48.596;9.238;2023-05-02T08:48:08;14.52;;;12.55;;
21822;SDS011;11074;48.596;9.238;2023-05-02T08:50:37;16.98;;;13.68;;
21822;SDS011;11074;48.596;9.238;2023-05-02T08:53:07;16.35;;;14.48;;
21822;SDS011;11074;48.596;9.238;2023-05-02T08:55:35;17.90;;;14.52;;
21822;SDS011;11074;48.596;9.238;2023-05-02T08:58:06;15.85;;;14.15;;
21822;SDS011;11074;48.596;9.238;2023-05-02T09:00:38;18.95;;;14.55;;
21822;SDS011;11074;48.596;9.238;2023-05-02T09:03:19;18.77;;;13.88;;
21822;SDS011;11074;48.596;9.238;2023-05-02T09:06:03;18.55;;;14.68;;
21822;SDS011;11074;48.596;9.238;2023-05-02T09:08:46;19.27;;;15.52;;
21822;SDS011;11074;48.596;9.238;2023-05-02T09:11:16;21.23;;;15.00;;
21822;SDS011;11074;48.596;9.238;2023-05-02T09:16:10;17.85;;;13.52;;
21822;SDS011;11074;48.596;9.238;2023-05-02T09:18:44;18.27;;;15.88;;
21822;SDS011;11074;48.596;9.238;2023-05-02T09:21:15;19.00;;;15.85;;
21822;SDS011;11074;48.596;9.238;2023-05-02T09:23:45;19.85;;;16.27;;
21822;SDS011;11074;48.596;9.238;2023-05-02T09:26:18;20.58;;;16.98;;
21822;SDS011;11074;48.596;9.238;2023-05-02T09:28:56;17.85;;;15.55;;
21822;SDS011;11074;48.596;9.238;2023-05-02T09:31:26;19.52;;;15.95;;
21822;SDS011;11074;48.596;9.238;2023-05-02T09:33:57;19.83;;;17.20;;
21822;SDS011;11074;48.596;9.238;2023-05-02T09:36:40;21.67;;;16.70;;
21822;SDS011;11074;48.596;9.238;2023-05-02T09:39:09;19.80;;;17.23;;
21822;SDS011;11074;48.596;9.238;2023-05-02T09:41:41;18.60;;;16.60;;
21822;SDS011;11074;48.596;9.238;2023-05-02T09:44:09;19.38;;;16.85;;
21822;SDS011;11074;48.596;9.238;2023-05-02T09:46:44;22.17;;;17.27;;
21822;SDS011;11074;48.596;9.238;2023-05-02T09:49:14;20.95;;;16.98;;
21822;SDS011;11074;48.596;9.238;2023-05-02T09:51:44;19.20;;;15.98;;
21822;SDS011;11074;48.596;9.238;2023-05-02T09:54:12;18.98;;;16.65;;
21822;SDS011;11074;48.596;9.238;2023-05-02T09:56:54;18.27;;;15.68;;
21822;SDS011;11074;48.596;9.238;2023-05-02T09:59:21;21.92;;;17.70;;
21822;SDS011;11074;48.596;9.238;2023-05-02T10:01:57;19.67;;;16.23;;
21822;SDS011;11074;48.596;9.238;2023-05-02T10:04:26;20.55;;;16.13;;
21822;SDS011;11074;48.596;9.238;2023-05-02T10:06:54;20.65;;;15.95;;
21822;SDS011;11074;48.596;9.238;2023-05-02T10:09:21;21.02;;;16.30;;
21822;SDS011;11074;48.596;9.238;2023-05-02T10:11:52;20.88;;;16.40;;
21822;SDS011;11074;48.596;9.238;2023-05-02T10:14:20;18.60;;;15.25;;
21822;SDS011;11074;48.596;9.238;2023-05-02T10:19:24;19.95;;;15.52;;
21822;SDS011;11074;48.596;9.238;2023-05-02T10:21:57;19.85;;;15.70;;
21822;SDS011;11074;48.596;9.238;2023-05-02T10:24:24;21.30;;;16.58;;
21822;SDS011;11074;48.596;9.238;2023-05-02T10:26:52;17.63;;;14.98;;
21822;SDS011;11074;48.596;9.238;2023-05-02T10:29:18;19.20;;;15.35;;
21822;SDS011;11074;48.596;9.238;2023-05-02T10:31:45;18.90;;;16.30;;
21822;SDS011;11074;48.596;9.238;2023-05-02T10:34:13;15.93;;;14.23;;
21822;SDS011;11074;48.596;9.238;2023-05-02T10:36:41;18.05;;;15.10;;
21822;SDS011;11074;48.596;9.238;2023-05-02T10:39:07;18.83;;;14.93;;
21822;SDS011;11074;48.596;9.238;2023-05-02T10:41:33;20.13;;;14.80;;
21822;SDS011;11074;48.596;9.238;2023-05-02T10:44:02;19.33;;;15.10;;
21822;SDS011;11074;48.596;9.238;2023-05-02T10:46:35;19.52;;;14.18;;
21822;SDS011;11074;48.596;9.238;2023-05-02T10:49:10;19.73;;;15.25;;
21822;SDS011;11074;48.596;9.238;2023-05-02T10:51:38;15.93;;;13.68;;
21822;SDS011;11074;48.596;9.238;2023-05-02T10:59:30;15.73;;;13.48;;
21822;SDS011;11074;48.596;9.238;2023-05-02T11:07:29;16.10;;;13.82;;
21822;SDS011;11074;48.596;9.238;2023-05-02T11:18:08;18.23;;;13.35;;
21822;SDS011;11074;48.596;9.238;2023-05-02T11:20:39;17.38;;;14.13;;
21822;SDS011;11074;48.596;9.238;2023-05-02T11:25:46;16.10;;;13.60;;
21822;SDS011;11074;48.596;9.238;2023-05-02T11:30:58;16.50;;;13.80;;
21822;SDS011;11074;48.596;9.238;2023-05-02T11:33:24;16.80;;;13.80;;
21822;SDS011;11074;48.596;9.238;2023-05-02T11:35:52;16.73;;;13.85;;
21822;SDS011;11074;48.596;9.238;2023-05-02T11:38:20;18.58;;;14.00;;
21822;SDS011;11074;48.596;9.238;2023-05-02T11:40:50;15.48;;;13.85;;
21822;SDS011;11074;48.596;9.238;2023-05-02T11:43:18;17.27;;;14.50;;
21822;SDS011;11074;48.596;9.238;2023-05-02T11:45:45;16.33;;;13.13;;
21822;SDS011;11074;48.596;9.238;2023-05-02T11:48:12;15.45;;;12.50;;
21822;SDS011;11074;48.596;9.238;2023-05-02T11:50:45;16.00;;;13.25;;
21822;SDS011;11074;48.596;9.238;2023-05-02T11:53:15;16.55;;;13.30;;
21822;SDS011;11074;48.596;9.238;2023-05-02T11:56:04;16.88;;;13.50;;
21822;SDS011;11074;48.596;9.238;2023-05-02T11:58:32;14.27;;;12.63;;
21822;SDS011;11074;48.596;9.238;2023-05-02T12:00:58;13.55;;;11.32;;
21822;SDS011;11074;48.596;9.238;2023-05-02T12:03:37;14.18;;;11.60;;
21822;SDS011;11074;48.596;9.238;2023-05-02T12:06:12;12.80;;;11.23;;
21822;SDS011;11074;48.596;9.238;2023-05-02T12:08:44;15.68;;;12.18;;
21822;SDS011;11074;48.596;9.238;2023-05-02T12:11:14;13.90;;;11.70;;
21822;SDS011;11074;48.596;9.238;2023-05-02T12:13:48;14.60;;;12.07;;
21822;SDS011;11074;48.596;9.238;2023-05-02T12:16:14;14.55;;;12.05;;
21822;SDS011;11074;48.596;9.238;2023-05-02T12:18:41;14.02;;;11.35;;
21822;SDS011;11074;48.596;9.238;2023-05-02T12:21:07;16.08;;;12.13;;
21822;SDS011;11074;48.596;9.238;2023-05-02T12:23:34;12.57;;;10.38;;
21822;SDS011;11074;48.596;9.238;2023-05-02T12:26:09;12.13;;;10.55;;
21822;SDS011;11074;48.596;9.238;2023-05-02T12:28:49;12.60;;;10.23;;
21822;SDS011;11074;48.596;9.238;2023-05-02T12:31:16;14.73;;;11.45;;
21822;SDS011;11074;48.596;9.238;2023-05-02T12:33:42;11.85;;;10.30;;
21822;SDS011;11074;48.596;9.238;2023-05-02T12:36:07;15.07;;;11.85;;
21822;SDS011;11074;48.596;9.238;2023-05-02T12:38:34;17.75;;;13.10;;
21822;SDS011;11074;48.596;9.238;2023-05-02T12:41:00;15.02;;;12.32;;
21822;SDS011;11074;48.596;9.238;2023-05-02T12:43:45;13.85;;;11.98;;
21822;SDS011;11074;48.596;9.238;2023-05-02T12:46:13;12.50;;;10.38;;
21822;SDS011;11074;48.596;9.238;2023-05-02T12:48:40;12.55;;;10.32;;
21822;SDS011;11074;48.596;9.238;2023-05-02T12:51:12;13.20;;;10.35;;
21822;SDS011;11074;48.596;9.238;2023-05-02T12:53:47;13.73;;;11.05;;
21822;SDS011;11074;48.596;9.238;2023-05-02T12:56:13;15.45;;;10.35;;
21822;SDS011;11074;48.596;9.238;2023-05-02T12:58:45;11.80;;;9.73;;
21822;SDS011;11074;48.596;9.238;2023-05-02T13:01:12;12.05;;;9.13;;
21822;SDS011;11074;48.596;9.238;2023-05-02T13:03:39;10.43;;;8.70;;
21822;SDS011;11074;48.596;9.238;2023-05-02T13:06:07;12.93;;;8.25;;
21822;SDS011;11074;48.596;9.238;2023-05-02T13:08:33;10.98;;;8.55;;
21822;SDS011;11074;48.596;9.238;2023-05-02T13:11:01;12.05;;;8.35;;
21822;SDS011;11074;48.596;9.238;2023-05-02T13:13:28;14.50;;;11.93;;
21822;SDS011;11074;48.596;9.238;2023-05-02T13:15:54;13.68;;;11.68;;
21822;SDS011;11074;48.596;9.238;2023-05-02T13:18:20;16.55;;;11.52;;
21822;SDS011;11074;48.596;9.238;2023-05-02T13:20:46;15.57;;;12.80;;
21822;SDS011;11074;48.596;9.238;2023-05-02T13:23:12;15.30;;;12.43;;
21822;SDS011;11074;48.596;9.238;2023-05-02T13:25:37;13.85;;;11.38;;
21822;SDS011;11074;48.596;9.238;2023-05-02T13:28:03;13.48;;;11.05;;
21822;SDS011;11074;48.596;9.238;2023-05-02T13:30:30;13.02;;;10.52;;
21822;SDS011;11074;48.596;9.238;2023-05-02T13:32:55;14.18;;;10.93;;
21822;SDS011;11074;48.596;9.238;2023-05-02T13:35:22;13.15;;;10.95;;
21822;SDS011;11074;48.596;9.238;2023-05-02T13:37:49;17.90;;;14.48;;
21822;SDS011;11074;48.596;9.238;2023-05-02T13:40:15;17.75;;;14.25;;
21822;SDS011;11074;48.596;9.238;2023-05-02T13:42:41;19.15;;;15.45;;
21822;SDS011;11074;48.596;9.238;2023-05-02T13:45:06;17.50;;;13.93;;
21822;SDS011;11074;48.596;9.238;2023-05-02T13:47:33;17.73;;;14.38;;
21822;SDS011;11074;48.596;9.238;2023-05-02T13:49:59;18.02;;;14.73;;
21822;SDS011;11074;48.596;9.238;2023-05-02T13:52:25;21.13;;;16.42;;
21822;SDS011;11074;48.596;9.238;2023-05-02T13:54:50;20.55;;;15.82;;
21822;SDS011;11074;48.596;9.238;2023-05-02T13:57:16;22.48;;;16.75;;
21822;SDS011;11074;48.596;9.238;2023-05-02T13:59:42;20.90;;;16.77;;
21822;SDS011;11074;48.596;9.238;2023-05-02T14:02:07;21.85;;;16.40;;
21822;SDS011;11074;48.596;9.238;2023-05-02T14:04:33;19.30;;;15.65;;
21822;SDS011;11074;48.596;9.238;2023-05-02T14:06:59;22.50;;;16.85;;
21822;SDS011;11074;48.596;9.238;2023-05-02T14:09:25;22.15;;;16.83;;
21822;SDS011;11074;48.596;9.238;2023-05-02T14:11:50;20.92;;;16.60;;
21822;SDS011;11074;48.596;9.238;2023-05-02T14:14:16;21.42;;;16.92;;
21822;SDS011;11074;48.596;9.238;2023-05-02T14:16:42;19.70;;;15.05;;
21822;SDS011;11074;48.596;9.238;2023-05-02T14:19:07;17.67;;;14.18;;
21822;SDS011;11074;48.596;9.238;2023-05-02T14:21:33;18.40;;;14.50;;
21822;SDS011;11074;48.596;9.238;2023-05-02T14:24:00;18.05;;;13.40;;
21822;SDS011;11074;48.596;9.238;2023-05-02T14:26:25;14.55;;;12.13;;
21822;SDS011;11074;48.596;9.238;2023-05-02T14:28:51;17.33;;;13.52;;
21822;SDS011;11074;48.596;9.238;2023-05-02T14:31:17;19.48;;;14.05;;
21822;SDS011;11074;48.596;9.238;2023-05-02T14:33:42;18.02;;;13.88;;
21822;SDS011;11074;48.596;9.238;2023-05-02T14:36:08;17.70;;;13.10;;
21822;SDS011;11074;48.596;9.238;2023-05-02T14:38:34;16.35;;;12.18;;
21822;SDS011;11074;48.596;9.238;2023-05-02T14:40:59;17.98;;;12.55;;
21822;SDS011;11074;48.596;9.238;2023-05-02T14:43:27;14.85;;;11.57;;
21822;SDS011;11074;48.596;9.238;2023-05-02T14:45:52;15.52;;;12.00;;
21822;SDS011;11074;48.596;9.238;2023-05-02T14:48:18;12.93;;;10.77;;
21822;SDS011;11074;48.596;9.238;2023-05-02T14:50:44;12.98;;;10.57;;
21822;SDS011;11074;48.596;9.238;2023-05-02T14:53:10;11.75;;;9.98;;
21822;SDS011;11074;48.596;9.238;2023-05-02T14:55:38;15.85;;;12.73;;
21822;SDS011;11074;48.596;9.238;2023-05-02T14:58:05;15.50;;;11.48;;
21822;SDS011;11074;48.596;9.238;2023-05-02T15:00:36;13.20;;;10.77;;
21822;SDS011;11074;48.596;9.238;2023-05-02T15:03:05;14.63;;;12.38;;
21822;SDS011;11074;48.596;9.238;2023-05-02T15:05:32;12.60;;;10.98;;
21822;SDS011;11074;48.596;9.238;2023-05-02T15:07:58;15.07;;;11.35;;
21822;SDS011;11074;48.596;9.238;2023-05-02T15:10:24;14.82;;;10.85;;
21822;SDS011;11074;48.596;9.238;2023-05-02T15:12:50;11.82;;;9.90;;
21822;SDS011;11074;48.596;9.238;2023-05-02T15:15:16;12.20;;;9.63;;
21822;SDS011;11074;48.596;9.238;2023-05-02T15:17:42;12.98;;;10.65;;
21822;SDS011;11074;48.596;9.238;2023-05-02T15:20:09;13.43;;;10.30;;
21822;SDS011;11074;48.596;9.238;2023-05-02T15:22:36;13.82;;;10.10;;
21822;SDS011;11074;48.596;9.238;2023-05-02T15:25:02;13.35;;;10.70;;
21822;SDS011;11074;48.596;9.238;2023-05-02T15:27:28;12.70;;;10.88;;
21822;SDS011;11074;48.596;9.238;2023-05-02T15:29:54;11.98;;;10.15;;
21822;SDS011;11074;48.596;9.238;2023-05-02T15:32:19;11.93;;;9.30;;
21822;SDS011;11074;48.596;9.238;2023-05-02T15:34:46;11.88;;;8.75;;
21822;SDS011;11074;48.596;9.238;2023-05-02T15:37:11;11.02;;;7.28;;
21822;SDS011;11074;48.596;9.238;2023-05-02T15:39:37;10.07;;;7.80;;